sensor_id;sensor_type;location;lat;lon;timestamp;temperature;humidity
4293;DHT22;2160;51.172;6.808;2023-02-01T05:00:54;8.30;99.90
4293;DHT22;2160;51.172;6.808;2023-02-01T05:03:21;8.20;99.90
4293;DHT22;2160;51.172;6.808;2023-02-01T05:05:48;8.10;99.90
4293;DHT22;2160;51.172;6.808;2023-02-01T05:08:15;8.20;99.90
4293;DHT22;2160;51.172;6.808;2023-02-01T05:10:44;8.20;99.90
4293;DHT22;2160;51.172;6.808;2023-02-01T05:13:11;8.30;99.90
4293;DHT22;2160;51.172;6.808;2023-02-01T05:15:59;8.30;99.90
4293;DHT22;2160;51.172;6.808;2023-02-01T05:18:26;8.20;99.90
4293;DHT22;2160;51.172;6.808;2023-02-01T05:20:53;8.30;99.90
4293;DHT22;2160;51.172;6.808;2023-02-01T05:23:20;8.30;99.90
4293;DHT22;2160;51.172;6.808;2023-02-01T05:25:47;8.30;99.90
4293;DHT22;2160;51.172;6.808;2023-02-01T05:28:14;8.20;99.90
4293;DHT22;2160;51.172;6.808;2023-02-01T05:30:41;8.30;99.90
4293;DHT22;2160;51.172;6.808;2023-02-01T05:33:09;8.20;99.90
4293;DHT22;2160;51.172;6.808;2023-02-01T05:35:36;8.10;99.90
4293;DHT22;2160;51.172;6.808;2023-02-01T05:38:03;8.10;99.90
4293;DHT22;2160;51.172;6.808;2023-02-01T05:40:30;8.10;99.90
4293;DHT22;2160;51.172;6.808;2023-02-01T05:42:57;8.00;99.90
4293;DHT22;2160;51.172;6.808;2023-02-01T05:45:24;8.00;99.90
4293;DHT22;2160;51.172;6.808;2023-02-01T05:47:51;8.10;99.90
4293;DHT22;2160;51.172;6.808;2023-02-01T05:50:20;8.00;99.90
4293;DHT22;2160;51.172;6.808;2023-02-01T05:52:55;8.00;99.90
4293;DHT22;2160;51.172;6.808;2023-02-01T05:55:22;8.30;99.90
4293;DHT22;2160;51.172;6.808;2023-02-01T05:57:53;8.00;99.90
4293;DHT22;2160;51.172;6.808;2023-02-01T06:00:21;7.90;99.90
4293;DHT22;2160;51.172;6.808;2023-02-01T06:02:49;7.90;99.90
4293;DHT22;2160;51.172;6.808;2023-02-01T06:05:16;8.20;99.90
4293;DHT22;2160;51.172;6.808;2023-02-01T06:07:44;8.30;99.90
4293;DHT22;2160;51.172;6.808;2023-02-01T06:10:11;8.20;99.90
4293;DHT22;2160;51.172;6.808;2023-02-01T06:12:38;8.40;99.90
4293;DHT22;2160;51.172;6.808;2023-02-01T06:15:06;8.40;99.90
4293;DHT22;2160;51.172;6.808;2023-02-01T06:17:33;8.40;99.90
4293;DHT22;2160;51.172;6.808;2023-02-01T06:20:00;8.30;99.90
4293;DHT22;2160;51.172;6.808;2023-02-01T06:22:27;8.30;99.90
4293;DHT22;2160;51.172;6.808;2023-02-01T06:24:56;8.10;99.90
4293;DHT22;2160;51.172;6.808;2023-02-01T06:27:24;8.20;99.90
4293;DHT22;2160;51.172;6.808;2023-02-01T06:29:52;8.30;99.90
4293;DHT22;2160;51.172;6.808;2023-02-01T06:32:20;8.40;99.90
4293;DHT22;2160;51.172;6.808;2023-02-01T06:34:48;8.50;99.90
4293;DHT22;2160;51.172;6.808;2023-02-01T06:37:15;8.70;99.90
4293;DHT22;2160;51.172;6.808;2023-02-01T06:39:42;8.40;99.90
4293;DHT22;2160;51.172;6.808;2023-02-01T06:42:11;8.50;99.90
4293;DHT22;2160;51.172;6.808;2023-02-01T06:44:38;8.60;99.90
4293;DHT22;2160;51.172;6.808;2023-02-01T06:47:05;8.30;99.90
4293;DHT22;2160;51.172;6.808;2023-02-01T06:49:32;8.40;99.90
4293;DHT22;2160;51.172;6.808;2023-02-01T06:51:59;8.50;99.90
4293;DHT22;2160;51.172;6.808;2023-02-01T06:54:26;8.50;99.90
4293;DHT22;2160;51.172;6.808;2023-02-01T06:56:53;8.70;99.90
4293;DHT22;2160;51.172;6.808;2023-02-01T06:59:21;8.60;99.90
4293;DHT22;2160;51.172;6.808;2023-02-01T07:01:48;8.50;99.90
4293;DHT22;2160;51.172;6.808;2023-02-01T07:04:15;8.60;99.90
4293;DHT22;2160;51.172;6.808;2023-02-01T07:06:42;8.60;99.90
4293;DHT22;2160;51.172;6.808;2023-02-01T07:09:09;8.60;99.90
4293;DHT22;2160;51.172;6.808;2023-02-01T07:11:37;8.60;99.90
4293;DHT22;2160;51.172;6.808;2023-02-01T07:14:08;8.80;99.90
4293;DHT22;2160;51.172;6.808;2023-02-01T07:16:37;8.80;99.90
4293;DHT22;2160;51.172;6.808;2023-02-01T07:19:05;8.70;99.90
4293;DHT22;2160;51.172;6.808;2023-02-01T07:21:32;8.70;99.90
4293;DHT22;2160;51.172;6.808;2023-02-01T07:23:59;8.80;99.90
4293;DHT22;2160;51.172;6.808;2023-02-01T07:26:26;8.90;99.90
4293;DHT22;2160;51.172;6.808;2023-02-01T07:28:53;8.90;99.90
4293;DHT22;2160;51.172;6.808;2023-02-01T07:31:20;8.70;99.90
4293;DHT22;2160;51.172;6.808;2023-02-01T07:33:49;8.70;99.90
4293;DHT22;2160;51.172;6.808;2023-02-01T07:36:18;8.80;99.90
4293;DHT22;2160;51.172;6.808;2023-02-01T07:38:46;8.80;99.90
4293;DHT22;2160;51.172;6.808;2023-02-01T07:41:14;9.00;99.90
4293;DHT22;2160;51.172;6.808;2023-02-01T07:43:41;8.80;99.90
4293;DHT22;2160;51.172;6.808;2023-02-01T07:46:10;8.80;99.90
4293;DHT22;2160;51.172;6.808;2023-02-01T07:48:38;8.90;99.90
4293;DHT22;2160;51.172;6.808;2023-02-01T07:51:10;8.90;99.90
4293;DHT22;2160;51.172;6.808;2023-02-01T07:53:38;8.70;99.90
4293;DHT22;2160;51.172;6.808;2023-02-01T07:56:11;8.80;99.90
4293;DHT22;2160;51.172;6.808;2023-02-01T07:58:38;8.90;99.90
4293;DHT22;2160;51.172;6.808;2023-02-01T08:01:10;9.00;99.90
4293;DHT22;2160;51.172;6.808;2023-02-01T08:03:47;8.90;99.90
4293;DHT22;2160;51.172;6.808;2023-02-01T08:06:16;8.80;99.90
4293;DHT22;2160;51.172;6.808;2023-02-01T08:08:45;8.90;99.90
4293;DHT22;2160;51.172;6.808;2023-02-01T08:11:13;8.80;99.90
4293;DHT22;2160;51.172;6.808;2023-02-01T08:13:40;9.10;99.90
4293;DHT22;2160;51.172;6.808;2023-02-01T08:16:09;8.80;99.90
4293;DHT22;2160;51.172;6.808;2023-02-01T08:18:37;8.90;99.90
4293;DHT22;2160;51.172;6.808;2023-02-01T08:21:05;9.00;99.90
4293;DHT22;2160;51.172;6.808;2023-02-01T08:23:35;9.00;99.90
4293;DHT22;2160;51.172;6.808;2023-02-01T08:26:10;8.90;99.90
4293;DHT22;2160;51.172;6.808;2023-02-01T08:28:38;8.80;99.90
4293;DHT22;2160;51.172;6.808;2023-02-01T08:31:07;8.90;99.90
4293;DHT22;2160;51.172;6.808;2023-02-01T08:33:35;8.90;99.90
4293;DHT22;2160;51.172;6.808;2023-02-01T08:36:04;9.00;99.90
4293;DHT22;2160;51.172;6.808;2023-02-01T08:38:34;8.90;99.90
4293;DHT22;2160;51.172;6.808;2023-02-01T08:41:04;9.00;99.90
4293;DHT22;2160;51.172;6.808;2023-02-01T08:43:32;8.80;99.90
4293;DHT22;2160;51.172;6.808;2023-02-01T08:45:59;8.80;99.90
4293;DHT22;2160;51.172;6.808;2023-02-01T08:48:26;8.80;99.90
4293;DHT22;2160;51.172;6.808;2023-02-01T08:50:56;8.70;99.90
4293;DHT22;2160;51.172;6.808;2023-02-01T08:53:23;8.70;99.90
4293;DHT22;2160;51.172;6.808;2023-02-01T08:55:51;8.90;99.90
4293;DHT22;2160;51.172;6.808;2023-02-01T08:58:18;9.00;99.90
4293;DHT22;2160;51.172;6.808;2023-02-01T09:00:47;9.00;99.90
4293;DHT22;2160;51.172;6.808;2023-02-01T09:03:15;9.10;99.90
4293;DHT22;2160;51.172;6.808;2023-02-01T09:05:42;9.00;99.90
4293;DHT22;2160;51.172;6.808;2023-02-01T09:08:10;9.00;99.90
4293;DHT22;2160;51.172;6.808;2023-02-01T09:10:39;9.10;99.90
4293;DHT22;2160;51.172;6.808;2023-02-01T09:13:08;9.10;99.90
4293;DHT22;2160;51.172;6.808;2023-02-01T09:15:37;9.20;99.90
4293;DHT22;2160;51.172;6.808;2023-02-01T09:18:04;9.20;99.90
4293;DHT22;2160;51.172;6.808;2023-02-01T09:20:31;9.10;99.90
4293;DHT22;2160;51.172;6.808;2023-02-01T09:22:58;9.10;99.90
4293;DHT22;2160;51.172;6.808;2023-02-01T09:25:25;9.10;99.90
4293;DHT22;2160;51.172;6.808;2023-02-01T09:27:53;9.00;99.90
4293;DHT22;2160;51.172;6.808;2023-02-01T09:30:21;9.00;99.90
4293;DHT22;2160;51.172;6.808;2023-02-01T09:32:48;9.10;99.90
4293;DHT22;2160;51.172;6.808;2023-02-01T09:35:15;9.20;99.90
4293;DHT22;2160;51.172;6.808;2023-02-01T09:37:43;9.20;99.90
4293;DHT22;2160;51.172;6.808;2023-02-01T09:40:13;9.30;99.90
4293;DHT22;2160;51.172;6.808;2023-02-01T09:43:00;9.30;99.90
4293;DHT22;2160;51.172;6.808;2023-02-01T09:45:33;9.20;99.90
4293;DHT22;2160;51.172;6.808;2023-02-01T09:48:09;9.30;99.90
4293;DHT22;2160;51.172;6.808;2023-02-01T09:50:39;9.10;99.90
4293;DHT22;2160;51.172;6.808;2023-02-01T09:53:12;9.10;99.90
4293;DHT22;2160;51.172;6.808;2023-02-01T09:55:41;9.00;99.90
4293;DHT22;2160;51.172;6.808;2023-02-01T09:58:14;9.10;99.90
4293;DHT22;2160;51.172;6.808;2023-02-01T10:00:50;8.90;99.90
4293;DHT22;2160;51.172;6.808;2023-02-01T10:03:17;8.80;99.90
4293;DHT22;2160;51.172;6.808;2023-02-01T10:05:59;8.80;99.90
4293;DHT22;2160;51.172;6.808;2023-02-01T10:08:36;8.80;99.90
4293;DHT22;2160;51.172;6.808;2023-02-01T10:11:16;8.70;99.90
4293;DHT22;2160;51.172;6.808;2023-02-01T10:13:54;8.80;99.90
4293;DHT22;2160;51.172;6.808;2023-02-01T10:16:40;9.20;99.90
4293;DHT22;2160;51.172;6.808;2023-02-01T10:19:24;9.00;99.90
4293;DHT22;2160;51.172;6.808;2023-02-01T10:21:59;9.10;99.90
4293;DHT22;2160;51.172;6.808;2023-02-01T10:24:41;9.10;99.90
4293;DHT22;2160;51.172;6.808;2023-02-01T10:27:15;9.20;99.90
4293;DHT22;2160;51.172;6.808;2023-02-01T10:29:45;9.20;99.90
4293;DHT22;2160;51.172;6.808;2023-02-01T10:32:18;9.40;99.90
4293;DHT22;2160;51.172;6.808;2023-02-01T10:34:48;9.50;99.90
4293;DHT22;2160;51.172;6.808;2023-02-01T10:37:27;9.40;99.90
4293;DHT22;2160;51.172;6.808;2023-02-01T10:39:56;9.30;99.90
4293;DHT22;2160;51.172;6.808;2023-02-01T10:42:27;9.30;99.90
4293;DHT22;2160;51.172;6.808;2023-02-01T10:44:56;9.20;99.90
4293;DHT22;2160;51.172;6.808;2023-02-01T10:47:25;9.20;99.90
4293;DHT22;2160;51.172;6.808;2023-02-01T10:49:57;9.30;99.90
4293;DHT22;2160;51.172;6.808;2023-02-01T10:52:36;9.10;99.90
4293;DHT22;2160;51.172;6.808;2023-02-01T10:55:31;9.20;99.90
4293;DHT22;2160;51.172;6.808;2023-02-01T10:58:00;9.30;99.90
4293;DHT22;2160;51.172;6.808;2023-02-01T11:00:28;9.30;99.90
4293;DHT22;2160;51.172;6.808;2023-02-01T11:03:27;9.40;99.90
4293;DHT22;2160;51.172;6.808;2023-02-01T11:05:56;9.40;99.90
4293;DHT22;2160;51.172;6.808;2023-02-01T11:08:24;9.40;99.90
4293;DHT22;2160;51.172;6.808;2023-02-01T11:10:57;9.50;99.90
4293;DHT22;2160;51.172;6.808;2023-02-01T11:13:29;9.50;99.90
4293;DHT22;2160;51.172;6.808;2023-02-01T11:15:56;9.50;99.90
4293;DHT22;2160;51.172;6.808;2023-02-01T11:18:29;9.50;99.90
4293;DHT22;2160;51.172;6.808;2023-02-01T11:20:57;9.40;99.90
4293;DHT22;2160;51.172;6.808;2023-02-01T11:23:27;9.40;99.90
4293;DHT22;2160;51.172;6.808;2023-02-01T11:25:56;9.40;99.90
4293;DHT22;2160;51.172;6.808;2023-02-01T11:28:26;9.40;99.90
4293;DHT22;2160;51.172;6.808;2023-02-01T11:30:56;9.60;99.90
4293;DHT22;2160;51.172;6.808;2023-02-01T11:33:29;9.60;99.90
4293;DHT22;2160;51.172;6.808;2023-02-01T11:36:00;10.00;99.90
4293;DHT22;2160;51.172;6.808;2023-02-01T11:38:30;9.70;99.90
4293;DHT22;2160;51.172;6.808;2023-02-01T11:41:12;9.90;99.90
4293;DHT22;2160;51.172;6.808;2023-02-01T11:43:54;10.00;99.90
4293;DHT22;2160;51.172;6.808;2023-02-01T11:46:26;10.10;99.90
4293;DHT22;2160;51.172;6.808;2023-02-01T11:48:57;10.20;99.90
4293;DHT22;2160;51.172;6.808;2023-02-01T11:51:47;10.00;99.90
4293;DHT22;2160;51.172;6.808;2023-02-01T11:54:28;10.00;99.90
4293;DHT22;2160;51.172;6.808;2023-02-01T11:57:09;10.00;99.90
4293;DHT22;2160;51.172;6.808;2023-02-01T11:59:53;10.00;99.90
4293;DHT22;2160;51.172;6.808;2023-02-01T12:05:41;9.80;99.90
4293;DHT22;2160;51.172;6.808;2023-02-01T12:08:30;9.80;99.90
4293;DHT22;2160;51.172;6.808;2023-02-01T12:11:20;9.80;99.90
4293;DHT22;2160;51.172;6.808;2023-02-01T12:13:55;9.70;99.90
4293;DHT22;2160;51.172;6.808;2023-02-01T12:16:31;9.60;99.90
4293;DHT22;2160;51.172;6.808;2023-02-01T12:19:21;9.70;99.90
4293;DHT22;2160;51.172;6.808;2023-02-01T12:22:01;9.70;99.90
4293;DHT22;2160;51.172;6.808;2023-02-01T12:25:03;9.80;99.90
4293;DHT22;2160;51.172;6.808;2023-02-01T12:27:43;9.90;99.90
4293;DHT22;2160;51.172;6.808;2023-02-01T12:33:16;10.00;99.90
4293;DHT22;2160;51.172;6.808;2023-02-01T12:36:07;10.10;99.90
4293;DHT22;2160;51.172;6.808;2023-02-01T12:38:46;10.20;99.90
4293;DHT22;2160;51.172;6.808;2023-02-01T12:41:34;10.10;99.90
4293;DHT22;2160;51.172;6.808;2023-02-01T12:44:11;10.00;99.90
4293;DHT22;2160;51.172;6.808;2023-02-01T12:46:43;10.00;99.90
4293;DHT22;2160;51.172;6.808;2023-02-01T12:49:19;10.10;99.90
4293;DHT22;2160;51.172;6.808;2023-02-01T12:51:55;10.10;99.90
4293;DHT22;2160;51.172;6.808;2023-02-01T12:54:30;10.00;99.90
4293;DHT22;2160;51.172;6.808;2023-02-01T12:57:04;10.00;99.90
4293;DHT22;2160;51.172;6.808;2023-02-01T12:59:36;9.80;99.90
4293;DHT22;2160;51.172;6.808;2023-02-01T13:02:11;10.00;99.90
4293;DHT22;2160;51.172;6.808;2023-02-01T13:04:52;10.20;99.90
4293;DHT22;2160;51.172;6.808;2023-02-01T13:07:28;10.20;99.90
4293;DHT22;2160;51.172;6.808;2023-02-01T13:10:01;10.10;99.90
4293;DHT22;2160;51.172;6.808;2023-02-01T13:12:35;10.10;99.90
4293;DHT22;2160;51.172;6.808;2023-02-01T13:15:12;10.30;99.90
4293;DHT22;2160;51.172;6.808;2023-02-01T13:17:43;10.20;99.90
4293;DHT22;2160;51.172;6.808;2023-02-01T13:20:17;10.30;99.90
4293;DHT22;2160;51.172;6.808;2023-02-01T13:22:54;10.30;99.90
4293;DHT22;2160;51.172;6.808;2023-02-01T13:25:30;10.40;99.90
4293;DHT22;2160;51.172;6.808;2023-02-01T13:28:04;10.30;99.90
4293;DHT22;2160;51.172;6.808;2023-02-01T13:30:43;10.30;99.90
4293;DHT22;2160;51.172;6.808;2023-02-01T13:33:31;10.20;99.90
4293;DHT22;2160;51.172;6.808;2023-02-01T13:36:32;10.30;99.90
4293;DHT22;2160;51.172;6.808;2023-02-01T13:39:29;10.20;99.90
4293;DHT22;2160;51.172;6.808;2023-02-01T13:42:04;10.20;99.90
4293;DHT22;2160;51.172;6.808;2023-02-01T13:44:34;10.20;99.90
4293;DHT22;2160;51.172;6.808;2023-02-01T13:47:12;10.10;99.90
4293;DHT22;2160;51.172;6.808;2023-02-01T13:49:44;10.20;99.90
4293;DHT22;2160;51.172;6.808;2023-02-01T13:52:26;10.20;99.90
4293;DHT22;2160;51.172;6.808;2023-02-01T13:55:23;10.20;99.90
4293;DHT22;2160;51.172;6.808;2023-02-01T13:58:00;10.40;99.90
4293;DHT22;2160;51.172;6.808;2023-02-01T14:00:29;10.50;99.90
4293;DHT22;2160;51.172;6.808;2023-02-01T14:03:13;10.50;99.90
4293;DHT22;2160;51.172;6.808;2023-02-01T14:06:03;10.40;99.90
4293;DHT22;2160;51.172;6.808;2023-02-01T14:08:42;10.40;99.90
4293;DHT22;2160;51.172;6.808;2023-02-01T14:14:49;10.20;99.90
4293;DHT22;2160;51.172;6.808;2023-02-01T14:17:36;10.30;99.90
4293;DHT22;2160;51.172;6.808;2023-02-01T14:23:28;10.40;99.90
4293;DHT22;2160;51.172;6.808;2023-02-01T14:26:15;10.30;99.90
4293;DHT22;2160;51.172;6.808;2023-02-01T14:29:21;10.40;99.90
4293;DHT22;2160;51.172;6.808;2023-02-01T14:32:02;10.40;99.90
4293;DHT22;2160;51.172;6.808;2023-02-01T14:34:35;10.40;99.90
4293;DHT22;2160;51.172;6.808;2023-02-01T14:37:10;10.20;99.90
4293;DHT22;2160;51.172;6.808;2023-02-01T14:39:58;10.40;99.90
4293;DHT22;2160;51.172;6.808;2023-02-01T14:42:33;10.50;99.90
4293;DHT22;2160;51.172;6.808;2023-02-01T14:45:46;10.40;99.90
4293;DHT22;2160;51.172;6.808;2023-02-01T14:48:45;10.50;99.90
4293;DHT22;2160;51.172;6.808;2023-02-01T14:51:16;10.30;99.90
4293;DHT22;2160;51.172;6.808;2023-02-01T14:53:46;10.30;99.90
4293;DHT22;2160;51.172;6.808;2023-02-01T14:56:18;10.40;99.90
4293;DHT22;2160;51.172;6.808;2023-02-01T14:58:54;10.40;99.90
4293;DHT22;2160;51.172;6.808;2023-02-01T15:01:24;10.40;99.90
4293;DHT22;2160;51.172;6.808;2023-02-01T15:04:01;10.40;99.90
4293;DHT22;2160;51.172;6.808;2023-02-01T15:06:33;10.30;99.90
4293;DHT22;2160;51.172;6.808;2023-02-01T15:09:11;10.20;99.90
4293;DHT22;2160;51.172;6.808;2023-02-01T15:12:01;10.30;99.90
4293;DHT22;2160;51.172;6.808;2023-02-01T15:14:30;10.30;99.90
4293;DHT22;2160;51.172;6.808;2023-02-01T15:16:58;10.50;99.90
4293;DHT22;2160;51.172;6.808;2023-02-01T15:19:28;10.40;99.90
4293;DHT22;2160;51.172;6.808;2023-02-01T15:21:57;10.40;99.90
4293;DHT22;2160;51.172;6.808;2023-02-01T15:24:27;10.40;99.90
4293;DHT22;2160;51.172;6.808;2023-02-01T15:27:03;10.50;99.90
4293;DHT22;2160;51.172;6.808;2023-02-01T15:29:33;10.30;99.90
4293;DHT22;2160;51.172;6.808;2023-02-01T15:32:02;10.40;99.90
4293;DHT22;2160;51.172;6.808;2023-02-01T15:34:49;10.40;99.90
4293;DHT22;2160;51.172;6.808;2023-02-01T15:37:21;10.40;99.90
4293;DHT22;2160;51.172;6.808;2023-02-01T15:40:18;10.40;99.90
4293;DHT22;2160;51.172;6.808;2023-02-01T15:42:52;10.60;99.90
4293;DHT22;2160;51.172;6.808;2023-02-01T15:45:24;10.60;99.90
4293;DHT22;2160;51.172;6.808;2023-02-01T15:47:57;10.50;99.90
4293;DHT22;2160;51.172;6.808;2023-02-01T15:50:33;10.30;99.90
4293;DHT22;2160;51.172;6.808;2023-02-01T15:56:53;10.30;99.90
4293;DHT22;2160;51.172;6.808;2023-02-01T15:59:25;10.40;99.90
4293;DHT22;2160;51.172;6.808;2023-02-01T16:02:04;10.40;99.90
4293;DHT22;2160;51.172;6.808;2023-02-01T16:04:52;10.40;99.90
4293;DHT22;2160;51.172;6.808;2023-02-01T16:07:26;10.40;99.90
4293;DHT22;2160;51.172;6.808;2023-02-01T16:09:58;10.50;99.90
4293;DHT22;2160;51.172;6.808;2023-02-01T16:12:49;10.50;99.90
4293;DHT22;2160;51.172;6.808;2023-02-01T16:15:26;10.50;99.90
4293;DHT22;2160;51.172;6.808;2023-02-01T16:18:00;10.40;99.90
4293;DHT22;2160;51.172;6.808;2023-02-01T16:20:37;10.60;99.90
4293;DHT22;2160;51.172;6.808;2023-02-01T16:24:22;10.60;99.90
4293;DHT22;2160;51.172;6.808;2023-02-01T16:27:32;10.50;99.90
4293;DHT22;2160;51.172;6.808;2023-02-01T16:30:02;10.40;99.90
4293;DHT22;2160;51.172;6.808;2023-02-01T16:33:56;10.40;99.90
4293;DHT22;2160;51.172;6.808;2023-02-01T16:36:13;10.50;99.90
4293;DHT22;2160;51.172;6.808;2023-02-01T16:45:33;10.30;99.90
4293;DHT22;2160;51.172;6.808;2023-02-01T16:55:41;10.20;99.90
4293;DHT22;2160;51.172;6.808;2023-02-01T16:58:41;10.00;99.90
4293;DHT22;2160;51.172;6.808;2023-02-01T17:09:15;10.10;99.90
4293;DHT22;2160;51.172;6.808;2023-02-01T17:25:13;10.10;99.90
4293;DHT22;2160;51.172;6.808;2023-02-01T17:27:40;10.20;99.90
4293;DHT22;2160;51.172;6.808;2023-02-01T17:30:09;10.30;99.90
4293;DHT22;2160;51.172;6.808;2023-02-01T17:32:36;10.40;99.90
4293;DHT22;2160;51.172;6.808;2023-02-01T17:35:04;10.40;99.90
4293;DHT22;2160;51.172;6.808;2023-02-01T17:37:32;10.20;99.90
4293;DHT22;2160;51.172;6.808;2023-02-01T17:40:01;10.40;99.90
4293;DHT22;2160;51.172;6.808;2023-02-01T17:42:30;10.50;99.90
4293;DHT22;2160;51.172;6.808;2023-02-01T17:44:59;10.50;99.90
4293;DHT22;2160;51.172;6.808;2023-02-01T17:47:27;10.60;99.90
4293;DHT22;2160;51.172;6.808;2023-02-01T17:49:54;10.50;99.90
4293;DHT22;2160;51.172;6.808;2023-02-01T17:52:23;10.60;99.90
4293;DHT22;2160;51.172;6.808;2023-02-01T17:54:50;10.60;99.90
4293;DHT22;2160;51.172;6.808;2023-02-01T17:57:18;10.80;99.90
4293;DHT22;2160;51.172;6.808;2023-02-01T17:59:47;10.70;99.90
4293;DHT22;2160;51.172;6.808;2023-02-01T18:02:18;10.80;99.90
4293;DHT22;2160;51.172;6.808;2023-02-01T18:04:45;10.90;99.90
4293;DHT22;2160;51.172;6.808;2023-02-01T18:07:13;10.90;99.90
4293;DHT22;2160;51.172;6.808;2023-02-01T18:09:40;10.90;99.90
4293;DHT22;2160;51.172;6.808;2023-02-01T18:12:14;10.80;99.90
4293;DHT22;2160;51.172;6.808;2023-02-01T18:14:42;10.80;99.90
4293;DHT22;2160;51.172;6.808;2023-02-01T18:17:11;10.80;99.90
4293;DHT22;2160;51.172;6.808;2023-02-01T18:19:38;11.00;99.90
4293;DHT22;2160;51.172;6.808;2023-02-01T18:22:05;11.00;99.90
4293;DHT22;2160;51.172;6.808;2023-02-01T18:24:32;10.90;99.90
4293;DHT22;2160;51.172;6.808;2023-02-01T18:26:59;10.80;99.90
4293;DHT22;2160;51.172;6.808;2023-02-01T18:29:26;10.70;99.90
4293;DHT22;2160;51.172;6.808;2023-02-01T18:31:54;10.60;99.90
4293;DHT22;2160;51.172;6.808;2023-02-01T18:34:22;10.50;99.90
4293;DHT22;2160;51.172;6.808;2023-02-01T18:36:50;10.60;99.90
4293;DHT22;2160;51.172;6.808;2023-02-01T18:39:18;10.50;99.90
4293;DHT22;2160;51.172;6.808;2023-02-01T18:41:47;10.50;99.90
4293;DHT22;2160;51.172;6.808;2023-02-01T18:44:17;10.40;99.90
4293;DHT22;2160;51.172;6.808;2023-02-01T18:46:44;10.30;99.90
4293;DHT22;2160;51.172;6.808;2023-02-01T18:49:11;10.30;99.90
4293;DHT22;2160;51.172;6.808;2023-02-01T18:51:43;10.40;99.90
4293;DHT22;2160;51.172;6.808;2023-02-01T18:54:11;10.50;99.90
4293;DHT22;2160;51.172;6.808;2023-02-01T18:56:38;10.70;99.90
4293;DHT22;2160;51.172;6.808;2023-02-01T18:59:05;10.40;99.90
4293;DHT22;2160;51.172;6.808;2023-02-01T19:01:33;10.40;99.90
4293;DHT22;2160;51.172;6.808;2023-02-01T19:04:00;10.50;99.90
4293;DHT22;2160;51.172;6.808;2023-02-01T19:06:27;10.40;99.90
4293;DHT22;2160;51.172;6.808;2023-02-01T19:08:56;10.40;99.90
4293;DHT22;2160;51.172;6.808;2023-02-01T19:11:23;10.60;99.90
4293;DHT22;2160;51.172;6.808;2023-02-01T19:13:50;10.60;99.90
4293;DHT22;2160;51.172;6.808;2023-02-01T19:16:17;10.50;99.90
4293;DHT22;2160;51.172;6.808;2023-02-01T19:18:51;10.40;99.90
4293;DHT22;2160;51.172;6.808;2023-02-01T19:21:23;10.50;99.90
4293;DHT22;2160;51.172;6.808;2023-02-01T19:23:53;10.40;99.90
4293;DHT22;2160;51.172;6.808;2023-02-01T19:26:24;10.40;99.90
4293;DHT22;2160;51.172;6.808;2023-02-01T19:28:51;10.40;99.90
4293;DHT22;2160;51.172;6.808;2023-02-01T19:31:18;10.30;99.90
4293;DHT22;2160;51.172;6.808;2023-02-01T19:33:48;10.50;99.90
4293;DHT22;2160;51.172;6.808;2023-02-01T19:36:17;10.40;99.90
4293;DHT22;2160;51.172;6.808;2023-02-01T19:38:49;10.40;99.90
4293;DHT22;2160;51.172;6.808;2023-02-01T19:41:16;10.50;99.90
4293;DHT22;2160;51.172;6.808;2023-02-01T19:43:45;10.50;99.90
4293;DHT22;2160;51.172;6.808;2023-02-01T19:46:13;10.50;99.90
4293;DHT22;2160;51.172;6.808;2023-02-01T19:48:40;10.60;99.90
4293;DHT22;2160;51.172;6.808;2023-02-01T19:51:07;10.60;99.90
4293;DHT22;2160;51.172;6.808;2023-02-01T19:53:37;10.70;99.90
4293;DHT22;2160;51.172;6.808;2023-02-01T19:56:05;10.70;99.90
4293;DHT22;2160;51.172;6.808;2023-02-01T19:58:32;10.80;99.90
4293;DHT22;2160;51.172;6.808;2023-02-01T20:01:02;10.50;99.90
4293;DHT22;2160;51.172;6.808;2023-02-01T20:03:39;10.60;99.90
4293;DHT22;2160;51.172;6.808;2023-02-01T20:06:09;10.40;99.90
4293;DHT22;2160;51.172;6.808;2023-02-01T20:08:37;10.50;99.90
4293;DHT22;2160;51.172;6.808;2023-02-01T20:11:12;10.50;99.90
4293;DHT22;2160;51.172;6.808;2023-02-01T20:13:42;10.60;99.90
4293;DHT22;2160;51.172;6.808;2023-02-01T20:16:11;10.50;99.90
4293;DHT22;2160;51.172;6.808;2023-02-01T20:18:40;10.40;99.90
4293;DHT22;2160;51.172;6.808;2023-02-01T20:21:08;10.40;99.90
4293;DHT22;2160;51.172;6.808;2023-02-01T20:23:41;10.50;99.90
4293;DHT22;2160;51.172;6.808;2023-02-01T20:26:13;10.50;99.90
4293;DHT22;2160;51.172;6.808;2023-02-01T20:28:48;10.50;99.90
4293;DHT22;2160;51.172;6.808;2023-02-01T20:31:19;10.50;99.90
4293;DHT22;2160;51.172;6.808;2023-02-01T20:33:48;10.40;99.90
4293;DHT22;2160;51.172;6.808;2023-02-01T20:36:15;10.60;99.90
4293;DHT22;2160;51.172;6.808;2023-02-01T20:38:43;10.60;99.90
4293;DHT22;2160;51.172;6.808;2023-02-01T20:41:14;10.60;99.90
4293;DHT22;2160;51.172;6.808;2023-02-01T20:43:50;10.60;99.90
4293;DHT22;2160;51.172;6.808;2023-02-01T20:46:21;10.40;99.90
4293;DHT22;2160;51.172;6.808;2023-02-01T20:48:51;10.40;99.90
4293;DHT22;2160;51.172;6.808;2023-02-01T20:51:19;10.40;99.90
4293;DHT22;2160;51.172;6.808;2023-02-01T20:53:48;10.30;99.90
4293;DHT22;2160;51.172;6.808;2023-02-01T20:56:17;10.60;99.90
4293;DHT22;2160;51.172;6.808;2023-02-01T20:58:45;10.40;99.90
4293;DHT22;2160;51.172;6.808;2023-02-01T21:01:23;10.60;99.90
4293;DHT22;2160;51.172;6.808;2023-02-01T21:03:50;10.60;99.90
4293;DHT22;2160;51.172;6.808;2023-02-01T21:06:24;10.40;99.90
4293;DHT22;2160;51.172;6.808;2023-02-01T21:09:02;10.30;99.90
4293;DHT22;2160;51.172;6.808;2023-02-01T21:11:37;10.50;99.90
4293;DHT22;2160;51.172;6.808;2023-02-01T21:14:05;10.40;99.90
4293;DHT22;2160;51.172;6.808;2023-02-01T21:16:35;10.40;99.90
4293;DHT22;2160;51.172;6.808;2023-02-01T21:19:05;10.40;99.90
4293;DHT22;2160;51.172;6.808;2023-02-01T21:21:35;10.30;99.90
4293;DHT22;2160;51.172;6.808;2023-02-01T21:24:04;10.60;99.90
4293;DHT22;2160;51.172;6.808;2023-02-01T21:26:31;10.40;99.90
4293;DHT22;2160;51.172;6.808;2023-02-01T21:29:06;10.50;99.90
4293;DHT22;2160;51.172;6.808;2023-02-01T21:31:35;10.60;99.90
4293;DHT22;2160;51.172;6.808;2023-02-01T21:34:07;10.50;99.90
4293;DHT22;2160;51.172;6.808;2023-02-01T21:36:41;10.30;99.90
4293;DHT22;2160;51.172;6.808;2023-02-01T21:39:11;10.10;99.90
4293;DHT22;2160;51.172;6.808;2023-02-01T21:41:39;10.30;99.90
4293;DHT22;2160;51.172;6.808;2023-02-01T21:44:24;10.30;99.90
4293;DHT22;2160;51.172;6.808;2023-02-01T21:46:56;10.40;99.90
4293;DHT22;2160;51.172;6.808;2023-02-01T21:49:24;10.50;99.90
4293;DHT22;2160;51.172;6.808;2023-02-01T21:51:54;10.60;99.90
4293;DHT22;2160;51.172;6.808;2023-02-01T21:54:24;10.50;99.90
4293;DHT22;2160;51.172;6.808;2023-02-01T21:57:03;10.50;99.90
4293;DHT22;2160;51.172;6.808;2023-02-01T21:59:41;10.50;99.90
4293;DHT22;2160;51.172;6.808;2023-02-01T22:02:15;10.60;99.90
4293;DHT22;2160;51.172;6.808;2023-02-01T22:04:43;10.60;99.90
4293;DHT22;2160;51.172;6.808;2023-02-01T22:07:10;10.50;99.90
4293;DHT22;2160;51.172;6.808;2023-02-01T22:09:38;10.40;99.90
4293;DHT22;2160;51.172;6.808;2023-02-01T22:12:05;10.30;99.90
4293;DHT22;2160;51.172;6.808;2023-02-01T22:14:33;10.40;99.90
4293;DHT22;2160;51.172;6.808;2023-02-01T22:17:00;10.50;99.90
4293;DHT22;2160;51.172;6.808;2023-02-01T22:19:29;10.50;99.90
4293;DHT22;2160;51.172;6.808;2023-02-01T22:21:56;10.50;99.90
4293;DHT22;2160;51.172;6.808;2023-02-01T22:24:25;10.50;99.90
4293;DHT22;2160;51.172;6.808;2023-02-01T22:26:52;10.60;99.90
4293;DHT22;2160;51.172;6.808;2023-02-01T22:29:20;10.60;99.90
4293;DHT22;2160;51.172;6.808;2023-02-01T22:31:48;10.70;99.90
4293;DHT22;2160;51.172;6.808;2023-02-01T22:34:15;10.60;99.90
4293;DHT22;2160;51.172;6.808;2023-02-01T22:36:45;10.60;99.90